Terminal Aerodrome Forecast
Issued by NWS Jackson, MS

Home | Current Version | Previous Version | Text Only | Print | Product List | Glossary On
Versions: 1 2 3 4 5 6 7 8 9 10 11 12
000
FTUS44 KMEG 302300
TAFTUP
TAF
KTUP 302331Z 3100/3124 03002KT P6SM BKN250
     FM311200 VRB03KT P6SM FEW050 OVC100
     FM311800 05005KT P6SM SCT100 OVC200=

USA.gov is the U.S. government's official web portal to all federal, state and local government web resources and services.